createdAt,value
2022-08-19T00:03:04.509Z,100693.78
2022-08-19T00:08:05.918Z,100713.31
2022-08-19T00:13:07.314Z,100721.22
2022-08-19T00:18:08.656Z,100714.09
2022-08-19T00:23:10.438Z,100714.56
2022-08-19T00:28:11.787Z,100716.28
2022-08-19T00:33:14.697Z,100715.97
2022-08-19T00:38:16.046Z,100722.53
2022-08-19T00:43:36.436Z,100724.81
2022-08-19T00:48:37.907Z,100731.16
2022-08-19T00:53:40.622Z,100723.59
2022-08-19T00:58:42.080Z,100713.97
2022-08-19T01:03:57.972Z,100708.69
2022-08-19T01:09:00.595Z,100700.22
2022-08-19T01:14:04.723Z,100692.88
2022-08-19T01:19:13.562Z,100706.28
2022-08-19T01:24:15.021Z,100709.50
2022-08-19T01:29:16.386Z,100712.84
2022-08-19T01:34:18.187Z,100713.63
2022-08-19T01:39:23.753Z,100711.22
2022-08-19T01:44:25.244Z,100715.47
2022-08-19T01:49:27.583Z,100716.84
2022-08-19T01:54:29.196Z,100705.03
2022-08-19T01:59:31.151Z,100712.84
2022-08-19T02:04:32.491Z,100703.56
2022-08-19T02:09:35.134Z,100702.25
2022-08-19T02:14:36.886Z,100699.97
2022-08-19T02:19:39.053Z,100703.63
2022-08-19T02:24:42.462Z,100711.88
2022-08-19T02:29:43.976Z,100718.19
2022-08-19T02:34:45.321Z,100706.94
2022-08-19T02:39:46.897Z,100710.28
2022-08-19T02:44:48.808Z,100708.88
2022-08-19T02:49:53.087Z,100701.56
2022-08-19T02:54:54.558Z,100699.94
2022-08-19T02:59:55.910Z,100704.19
2022-08-19T03:04:57.496Z,100718.63
2022-08-19T03:09:58.990Z,100718.97
2022-08-19T03:15:01.699Z,100719.78
2022-08-19T03:20:03.538Z,100725.69
2022-08-19T03:25:05.100Z,100722.50
2022-08-19T03:30:07.811Z,100720.41
2022-08-19T03:35:13.119Z,100724.16
2022-08-19T03:40:16.497Z,100718.31
2022-08-19T03:45:18.483Z,100719.56
2022-08-19T03:50:20.291Z,100726.09
2022-08-19T03:55:21.636Z,100732.72
2022-08-19T04:00:23.044Z,100733.88
2022-08-19T04:05:24.702Z,100734.31
2022-08-19T04:10:29.649Z,100740.97
2022-08-19T04:15:32.247Z,100744.59
2022-08-19T04:20:33.812Z,100747.13
2022-08-19T04:25:39.202Z,100752.59
2022-08-19T04:30:44.486Z,100759.13
2022-08-19T04:35:47.660Z,100753.78
2022-08-19T04:41:09.421Z,100749.16
2022-08-19T04:46:11.973Z,100759.84
2022-08-19T04:51:34.360Z,100765.28
2022-08-19T04:56:35.744Z,100771.00
2022-08-19T05:01:37.656Z,100780.28
2022-08-19T05:06:40.198Z,100780.75
2022-08-19T05:11:41.542Z,100789.97
2022-08-19T05:16:42.940Z,100794.41
2022-08-19T05:22:03.611Z,100786.91
2022-08-19T05:27:06.487Z,100788.50
2022-08-19T05:32:11.490Z,100794.31
2022-08-19T05:37:12.837Z,100792.16
2022-08-19T05:42:14.228Z,100796.22
2022-08-19T05:47:15.983Z,100793.97
2022-08-19T05:52:18.656Z,100789.41
2022-08-19T05:57:20.715Z,100796.78
2022-08-19T06:02:22.667Z,100805.28
2022-08-19T06:07:24.194Z,100805.81
2022-08-19T06:12:33.887Z,100796.22
2022-08-19T06:17:36.131Z,100787.94
2022-08-19T06:22:41.419Z,100790.13
2022-08-19T06:33:04.401Z,100797.72
2022-08-19T06:38:06.013Z,100793.06
2022-08-19T06:43:08.581Z,100801.59
2022-08-19T06:48:11.742Z,100811.34
2022-08-19T06:53:13.262Z,100820.94
2022-08-19T06:58:15.194Z,100828.50
2022-08-19T07:03:16.837Z,100830.19
2022-08-19T07:08:18.634Z,100842.56
2022-08-19T07:13:20.201Z,100846.91
2022-08-19T07:18:22.555Z,100846.50
2022-08-19T07:23:23.957Z,100840.56
2022-08-19T07:28:25.935Z,100828.06
2022-08-19T07:33:31.101Z,100832.28
2022-08-19T07:38:34.886Z,100839.00
2022-08-19T07:43:36.285Z,100834.16
2022-08-19T07:48:37.601Z,100830.47
2022-08-19T07:53:39.939Z,100828.16
2022-08-19T07:58:43.344Z,100841.25
2022-08-19T08:04:03.532Z,100830.34
2022-08-19T08:09:16.628Z,100825.72
2022-08-19T08:14:29.365Z,100832.81
2022-08-19T08:19:31.497Z,100826.81
2022-08-19T08:24:33.141Z,100819.81
2022-08-19T08:29:35.350Z,100809.66
2022-08-19T08:34:37.972Z,100822.91
2022-08-19T08:39:39.430Z,100820.13
2022-08-19T08:44:40.785Z,100834.22
2022-08-19T08:49:46.255Z,100831.84
2022-08-19T08:54:55.645Z,100831.75
2022-08-19T08:59:58.009Z,100822.16
2022-08-19T09:04:59.698Z,100819.03
2022-08-19T09:10:22.463Z,100815.63
2022-08-19T09:15:36.811Z,100815.75
2022-08-19T09:20:42.578Z,100819.84
2022-08-19T09:25:44.464Z,100812.25
2022-08-19T09:30:45.823Z,100808.97
2022-08-19T09:35:53.297Z,100812.09
2022-08-19T09:40:55.256Z,100802.25
2022-08-19T09:45:57.587Z,100807.50
2022-08-19T09:51:12.067Z,100803.84
2022-08-19T09:56:14.203Z,100801.31
2022-08-19T10:01:26.580Z,100803.75
2022-08-19T10:06:46.159Z,100803.41
2022-08-19T10:11:54.858Z,100804.34
2022-08-19T10:16:57.558Z,100804.00
2022-08-19T10:22:03.196Z,100786.09
2022-08-19T10:27:04.739Z,100785.69
2022-08-19T10:32:09.418Z,100784.91
2022-08-19T10:37:11.646Z,100779.69
2022-08-19T10:42:17.863Z,100777.78
2022-08-19T10:47:25.047Z,100774.06
2022-08-19T10:52:38.915Z,100758.44
2022-08-19T10:58:01.308Z,100764.75
2022-08-19T11:03:03.317Z,100760.44
2022-08-19T11:08:22.595Z,100747.09
2022-08-19T11:13:25.597Z,100746.47
2022-08-19T11:18:27.423Z,100748.22
2022-08-19T11:23:28.766Z,100737.53
2022-08-19T11:28:30.168Z,100737.66
2022-08-19T11:33:31.887Z,100741.81
2022-08-19T11:38:33.233Z,100734.28
2022-08-19T11:43:37.459Z,100733.69
2022-08-19T11:48:39.643Z,100725.25
2022-08-19T11:53:41.598Z,100731.72
2022-08-19T11:58:43.084Z,100717.28
2022-08-19T12:03:45.926Z,100718.81
2022-08-19T12:08:48.426Z,100725.00
2022-08-19T12:13:50.967Z,100715.00
2022-08-19T12:18:52.369Z,100716.53
2022-08-19T12:23:55.758Z,100705.91
2022-08-19T12:28:57.367Z,100699.56
2022-08-19T12:33:59.189Z,100694.09
2022-08-19T12:39:00.761Z,100698.41
2022-08-19T12:44:02.192Z,100695.25
2022-08-19T12:49:05.148Z,100689.06
2022-08-19T12:54:22.129Z,100690.31
2022-08-19T12:59:23.823Z,100682.84
2022-08-19T13:04:25.519Z,100676.31
2022-08-19T13:09:27.010Z,100670.16
2022-08-19T13:14:28.420Z,100671.47
2022-08-19T13:19:31.255Z,100667.13
2022-08-19T13:24:34.111Z,100668.06
2022-08-19T13:29:54.098Z,100660.38
2022-08-19T13:34:55.443Z,100664.03
2022-08-19T13:39:56.865Z,100658.25
2022-08-19T13:44:59.438Z,100661.44
2022-08-19T13:50:01.409Z,100655.69
2022-08-19T13:55:02.945Z,100650.59
2022-08-19T14:00:05.042Z,100654.84
2022-08-19T14:05:07.386Z,100667.41
2022-08-19T14:10:09.576Z,100659.03
2022-08-19T14:15:12.011Z,100664.66
2022-08-19T14:20:17.553Z,100661.47
2022-08-19T14:25:21.391Z,100652.63
2022-08-19T14:30:29.220Z,100653.53
2022-08-19T14:35:34.701Z,100651.91
2022-08-19T14:40:36.233Z,100659.94
2022-08-19T14:45:38.617Z,100654.44
2022-08-19T14:50:42.188Z,100655.69
2022-08-19T14:55:43.908Z,100666.13
2022-08-19T15:00:45.285Z,100652.53
2022-08-19T15:05:46.938Z,100653.78
2022-08-19T15:10:48.779Z,100655.34
2022-08-19T15:15:50.226Z,100663.09
2022-08-19T15:20:51.955Z,100663.09
2022-08-19T15:25:55.814Z,100669.41
2022-08-19T15:30:57.964Z,100670.16
2022-08-19T15:36:00.168Z,100677.84
2022-08-19T15:41:21.901Z,100681.63
2022-08-19T15:46:25.765Z,100675.25
2022-08-19T15:51:30.279Z,100687.38
2022-08-19T15:56:57.518Z,100693.09
2022-08-19T16:02:18.231Z,100699.63
2022-08-19T16:07:22.431Z,100689.91
2022-08-19T16:12:30.315Z,100694.03
2022-08-19T16:17:31.665Z,100685.91
2022-08-19T16:22:33.086Z,100696.75
2022-08-19T16:27:34.653Z,100696.44
2022-08-19T16:32:35.999Z,100699.81
2022-08-19T16:37:37.377Z,100706.03
2022-08-19T16:42:39.711Z,100697.09
2022-08-19T16:47:41.207Z,100700.44
2022-08-19T16:52:42.838Z,100709.75
2022-08-19T16:57:44.532Z,100707.56
2022-08-19T17:02:45.873Z,100707.84
2022-08-19T17:07:47.219Z,100709.72
2022-08-19T17:12:48.600Z,100702.59
2022-08-19T17:17:50.026Z,100707.91
2022-08-19T17:22:51.450Z,100703.44
2022-08-19T17:27:53.155Z,100710.53
2022-08-19T17:32:54.548Z,100715.78
2022-08-19T17:37:56.128Z,100717.06
2022-08-19T17:42:57.563Z,100712.19
2022-08-19T17:48:00.709Z,100715.78
2022-08-19T17:53:02.263Z,100717.06
2022-08-19T17:58:05.173Z,100716.59
2022-08-19T18:03:09.821Z,100720.75
2022-08-19T18:08:13.675Z,100717.38
2022-08-19T18:13:17.199Z,100727.66
2022-08-19T18:18:18.928Z,100739.41
2022-08-19T18:23:45.279Z,100743.53
2022-08-19T18:28:49.359Z,100744.16
2022-08-19T18:33:54.167Z,100748.00
2022-08-19T18:39:14.237Z,100752.09
2022-08-19T18:44:34.178Z,100758.81
2022-08-19T18:49:35.525Z,100763.19
2022-08-19T18:54:38.385Z,100774.44
2022-08-19T18:59:43.460Z,100777.63
2022-08-19T19:04:45.629Z,100791.22
2022-08-19T19:09:52.775Z,100799.47
2022-08-19T19:14:54.844Z,100806.13
2022-08-19T19:19:56.189Z,100810.94
2022-08-19T19:24:59.328Z,100803.78
2022-08-19T19:30:00.734Z,100813.66
2022-08-19T19:35:02.071Z,100822.94
2022-08-19T19:40:03.914Z,100821.84
2022-08-19T19:45:05.548Z,100833.56
2022-08-19T19:50:15.881Z,100836.44
2022-08-19T19:55:20.626Z,100833.75
2022-08-19T20:00:22.054Z,100839.84
2022-08-19T20:05:23.875Z,100849.41
2022-08-19T20:10:25.704Z,100853.59
2022-08-19T20:15:28.440Z,100856.50
2022-08-19T20:20:31.124Z,100864.72
2022-08-19T20:25:33.983Z,100865.25
2022-08-19T20:30:35.434Z,100871.16
2022-08-19T20:35:39.848Z,100873.56
2022-08-19T20:40:41.371Z,100873.56
2022-08-19T20:45:42.816Z,100889.81
2022-08-19T20:50:44.557Z,100885.56
2022-08-19T20:55:49.136Z,100892.19
2022-08-19T21:00:52.920Z,100889.78
2022-08-19T21:05:54.772Z,100888.78
2022-08-19T21:10:56.831Z,100896.22
2022-08-19T21:15:58.291Z,100892.81
2022-08-19T21:20:59.653Z,100897.31
2022-08-19T21:26:01.184Z,100900.00
2022-08-19T21:31:02.534Z,100903.44
2022-08-19T21:36:04.741Z,100904.47
2022-08-19T21:41:06.922Z,100916.25
2022-08-19T21:46:09.007Z,100922.09
2022-08-19T21:51:10.361Z,100923.72
2022-08-19T21:56:12.739Z,100932.44
2022-08-19T22:01:14.148Z,100927.38
2022-08-19T22:06:16.373Z,100927.38
2022-08-19T22:11:17.725Z,100919.16
2022-08-19T22:16:19.699Z,100919.63
2022-08-19T22:21:40.835Z,100912.97
2022-08-19T22:26:42.454Z,100914.03
2022-08-19T22:31:44.396Z,100902.06
2022-08-19T22:36:45.726Z,100905.78
2022-08-19T22:41:47.116Z,100908.41
2022-08-19T22:46:48.540Z,100908.41
2022-08-19T22:52:08.599Z,100909.38
2022-08-19T22:57:11.302Z,100914.41
2022-08-19T23:02:17.984Z,100902.59
2022-08-19T23:07:23.856Z,100916.50
2022-08-19T23:12:27.004Z,100909.19
2022-08-19T23:17:28.385Z,100911.38
2022-08-19T23:22:30.528Z,100911.72
2022-08-19T23:27:50.548Z,100910.78
2022-08-19T23:33:13.773Z,100908.25
2022-08-19T23:38:15.111Z,100918.84
2022-08-19T23:43:20.834Z,100920.06
2022-08-19T23:48:28.455Z,100924.00
2022-08-19T23:53:30.229Z,100918.63
2022-08-19T23:58:31.948Z,100919.13
